createdAt,value
2018-04-11T00:00:40.115Z,12.50
2018-04-11T00:03:07.591Z,12.50
2018-04-11T00:05:35.067Z,12.40
2018-04-11T00:08:03.315Z,12.10
2018-04-11T00:10:30.901Z,12.00
2018-04-11T00:12:59.236Z,12.00
2018-04-11T00:15:26.703Z,12.10
2018-04-11T00:17:54.180Z,12.20
2018-04-11T00:20:21.702Z,12.20
2018-04-11T00:22:49.142Z,12.20
2018-04-11T00:25:16.825Z,12.10
2018-04-11T00:27:44.324Z,12.10
2018-04-11T00:30:11.807Z,12.10
2018-04-11T00:32:40.076Z,12.00
2018-04-11T00:35:07.555Z,12.00
2018-04-11T00:37:35.040Z,11.90
2018-04-11T00:40:03.268Z,11.90
2018-04-11T00:42:31.525Z,11.70
2018-04-11T00:44:59.053Z,11.70
2018-04-11T00:47:26.539Z,11.50
2018-04-11T00:49:54.787Z,11.40
2018-04-11T00:52:22.433Z,11.40
2018-04-11T00:54:50.699Z,11.60
2018-04-11T00:57:19.128Z,11.70
2018-04-11T00:59:46.679Z,11.70
2018-04-11T01:02:14.181Z,11.80
2018-04-11T01:04:41.639Z,11.70
2018-04-11T01:07:09.112Z,11.70
2018-04-11T01:09:36.860Z,11.80
2018-04-11T01:12:04.340Z,11.90
2018-04-11T01:14:31.825Z,11.90
2018-04-11T01:16:59.292Z,11.90
2018-04-11T01:19:26.791Z,11.80
2018-04-11T01:21:54.490Z,11.80
2018-04-11T01:24:22.707Z,11.90
2018-04-11T01:26:50.171Z,11.90
2018-04-11T01:29:21.285Z,11.80
2018-04-11T01:31:50.798Z,11.80
2018-04-11T01:34:18.512Z,11.80
2018-04-11T01:36:45.996Z,11.90
2018-04-11T01:39:13.697Z,11.90
2018-04-11T01:41:41.140Z,11.90
2018-04-11T01:44:08.625Z,11.90
2018-04-11T01:46:36.382Z,11.90
2018-04-11T01:49:03.885Z,11.80
2018-04-11T01:51:31.357Z,11.80
2018-04-11T01:53:58.833Z,11.90
2018-04-11T01:56:26.339Z,11.90
2018-04-11T01:58:53.825Z,11.90
2018-04-11T02:01:21.319Z,11.80
2018-04-11T02:03:48.831Z,11.80
2018-04-11T02:06:17.056Z,11.80
2018-04-11T02:08:44.535Z,11.80
2018-04-11T02:11:12.011Z,11.70
2018-04-11T02:13:39.495Z,11.60
2018-04-11T02:16:07.013Z,11.50
2018-04-11T02:18:34.598Z,11.50
2018-04-11T02:21:02.072Z,11.50
2018-04-11T02:23:29.528Z,11.50
2018-04-11T02:25:57.035Z,11.60
2018-04-11T02:28:24.567Z,11.50
2018-04-11T02:30:52.830Z,11.60
2018-04-11T02:33:20.471Z,11.60
2018-04-11T02:35:47.949Z,11.60
2018-04-11T02:38:15.410Z,11.60
2018-04-11T02:40:43.077Z,11.60
2018-04-11T02:43:10.563Z,11.60
2018-04-11T02:45:38.039Z,11.50
2018-04-11T02:48:05.541Z,11.50
2018-04-11T02:50:33.049Z,11.50
2018-04-11T02:53:00.532Z,11.50
2018-04-11T02:55:28.036Z,11.50
2018-04-11T02:57:56.276Z,11.40
2018-04-11T03:00:24.651Z,11.30
2018-04-11T03:02:53.148Z,11.30
2018-04-11T03:05:20.649Z,11.30
2018-04-11T03:07:48.139Z,11.40
2018-04-11T03:10:16.411Z,11.30
2018-04-11T03:12:44.074Z,11.30
2018-04-11T03:15:11.548Z,11.40
2018-04-11T03:17:39.045Z,11.40
2018-04-11T03:20:07.299Z,11.40
2018-04-11T03:22:34.784Z,11.40
2018-04-11T03:25:02.300Z,11.50
2018-04-11T03:27:29.811Z,11.50
2018-04-11T03:29:57.313Z,11.50
2018-04-11T03:32:25.542Z,11.40
2018-04-11T03:34:53.046Z,11.40
2018-04-11T03:37:20.547Z,11.40
2018-04-11T03:39:48.796Z,11.30
2018-04-11T03:42:16.294Z,11.30
2018-04-11T03:44:44.564Z,11.20
2018-04-11T03:47:12.067Z,11.20
2018-04-11T03:49:40.348Z,11.20
2018-04-11T03:52:08.638Z,11.20
2018-04-11T03:54:36.878Z,11.10
2018-04-11T03:57:04.380Z,11.10
2018-04-11T03:59:31.879Z,11.10
2018-04-11T04:01:59.344Z,11.10
2018-04-11T04:04:27.075Z,11.10
2018-04-11T04:06:54.566Z,11.10
2018-04-11T04:09:22.842Z,11.00
2018-04-11T04:11:50.345Z,11.00
2018-04-11T04:14:30.323Z,11.00
2018-04-11T04:17:09.675Z,11.00
2018-04-11T04:22:48.875Z,11.10
2018-04-11T04:25:16.329Z,11.10
2018-04-11T04:27:43.795Z,11.10
2018-04-11T04:30:11.280Z,11.10
2018-04-11T04:32:38.788Z,11.00
2018-04-11T04:35:07.038Z,11.10
2018-04-11T04:37:34.532Z,11.00
2018-04-11T04:40:02.083Z,10.90
2018-04-11T04:42:29.611Z,10.90
2018-04-11T04:45:02.744Z,10.90
2018-04-11T04:47:33.539Z,10.90
2018-04-11T04:50:01.775Z,10.90
2018-04-11T04:52:31.387Z,10.80
2018-04-11T04:54:59.688Z,10.90
2018-04-11T04:57:27.179Z,10.80
2018-04-11T04:59:54.735Z,10.90
2018-04-11T05:02:22.228Z,10.70
2018-04-11T05:04:56.204Z,10.70
2018-04-11T05:07:23.694Z,10.70
2018-04-11T05:09:51.168Z,10.70
2018-04-11T05:12:24.604Z,10.70
2018-04-11T05:14:52.870Z,10.50
2018-04-11T05:17:20.375Z,10.40
2018-04-11T05:19:48.625Z,10.50
2018-04-11T05:22:16.196Z,10.50
2018-04-11T05:24:43.730Z,10.60
2018-04-11T05:27:12.210Z,10.70
2018-04-11T05:29:40.691Z,10.70
2018-04-11T05:32:08.965Z,10.70
2018-04-11T05:34:50.936Z,10.70
2018-04-11T05:37:18.447Z,10.70
2018-04-11T05:39:48.956Z,10.60
2018-04-11T05:42:16.446Z,10.60
2018-04-11T05:44:45.823Z,10.60
2018-04-11T05:47:13.482Z,10.50
2018-04-11T05:49:41.810Z,10.60
2018-04-11T05:52:09.292Z,10.50
2018-04-11T05:54:36.778Z,10.50
2018-04-11T05:57:05.020Z,10.40
2018-04-11T05:59:35.769Z,10.50
2018-04-11T06:02:03.243Z,10.50
2018-04-11T06:04:37.634Z,10.50
2018-04-11T06:07:05.949Z,10.60
2018-04-11T06:09:33.431Z,10.50
2018-04-11T06:12:01.770Z,10.50
2018-04-11T06:14:29.328Z,10.60
2018-04-11T06:16:56.875Z,10.60
2018-04-11T06:19:25.150Z,10.60
2018-04-11T06:21:52.660Z,10.60
2018-04-11T06:24:20.256Z,10.60
2018-04-11T06:26:47.808Z,10.60
2018-04-11T06:29:15.482Z,10.70
2018-04-11T06:31:43.752Z,10.70
2018-04-11T06:34:11.247Z,10.80
2018-04-11T06:36:39.707Z,10.80
2018-04-11T06:39:10.769Z,10.80
2018-04-11T07:51:40.047Z,10.90
2018-04-11T07:54:09.701Z,11.00
2018-04-11T08:12:01.525Z,11.10
2018-04-11T08:35:31.116Z,11.50
2018-04-11T08:53:09.732Z,11.60
2018-04-11T09:02:02.701Z,11.70
2018-04-11T09:07:33.717Z,11.70
2018-04-11T09:10:04.168Z,11.80
2018-04-11T09:19:33.433Z,11.80
2018-04-11T09:22:03.660Z,11.90
2018-04-11T09:29:03.624Z,12.20
2018-04-11T09:31:33.568Z,12.40
2018-04-11T09:37:03.799Z,12.70
2018-04-11T09:39:34.581Z,12.80
2018-04-11T09:42:03.335Z,13.00
2018-04-11T09:44:31.277Z,13.00
2018-04-11T09:47:03.471Z,12.90
2018-04-11T09:49:32.267Z,13.00
2018-04-11T09:52:01.314Z,13.10
2018-04-11T09:54:34.157Z,13.10
2018-04-11T09:57:03.739Z,12.80
2018-04-11T09:59:34.162Z,12.90
2018-04-11T10:05:04.663Z,12.90
2018-04-11T10:07:32.144Z,12.90
2018-04-11T10:10:04.292Z,13.10
2018-04-11T10:12:35.404Z,13.20
2018-04-11T10:15:03.638Z,13.40
2018-04-11T10:17:31.151Z,13.50
2018-04-11T10:20:04.222Z,13.70
2018-04-11T10:22:31.742Z,13.80
2018-04-11T10:24:59.332Z,14.00
2018-04-11T10:27:27.764Z,14.10
2018-04-11T10:30:04.993Z,14.10
2018-04-11T10:32:32.508Z,14.00
2018-04-11T10:35:00.061Z,14.00
2018-04-11T10:37:27.582Z,14.10
2018-04-11T10:40:03.378Z,14.20
2018-04-11T10:42:33.652Z,14.40
2018-04-11T10:45:01.160Z,14.40
2018-04-11T10:47:29.647Z,14.40
2018-04-11T10:49:57.139Z,14.50
2018-04-11T10:52:24.640Z,14.60
2018-04-11T10:54:52.176Z,14.90
2018-04-11T10:57:20.812Z,15.10
2018-04-11T10:59:48.423Z,15.10
2018-04-11T11:02:15.940Z,15.10
2018-04-11T11:04:43.477Z,15.20
2018-04-11T11:07:12.045Z,15.20
2018-04-11T11:09:39.707Z,15.10
2018-04-11T11:12:08.138Z,15.10
2018-04-11T11:14:35.766Z,15.20
2018-04-11T11:17:03.279Z,15.30
2018-04-11T11:19:46.775Z,15.40
2018-04-11T11:22:17.847Z,15.60
2018-04-11T11:24:46.370Z,15.70
2018-04-11T11:27:13.855Z,16.00
2018-04-11T11:29:41.335Z,16.20
2018-04-11T11:32:09.663Z,17.20
2018-04-11T11:34:50.286Z,17.20
2018-04-11T11:37:17.782Z,17.70
2018-04-11T11:39:46.024Z,18.40
2018-04-11T11:42:13.749Z,18.30
2018-04-11T11:44:41.373Z,18.70
2018-04-11T11:47:08.840Z,18.70
2018-04-11T11:49:36.559Z,18.60
2018-04-11T11:52:04.851Z,18.20
2018-04-11T11:54:33.643Z,18.20
2018-04-11T11:57:01.307Z,18.60
2018-04-11T11:59:29.727Z,18.80
2018-04-11T12:01:57.228Z,19.10
2018-04-11T12:04:26.617Z,19.40
2018-04-11T12:06:58.088Z,19.30
2018-04-11T12:09:25.715Z,19.00
2018-04-11T12:11:53.252Z,18.70
2018-04-11T12:14:20.676Z,18.40
2018-04-11T12:16:51.005Z,18.60
2018-04-11T12:19:20.824Z,18.90
2018-04-11T12:21:56.988Z,18.90
2018-04-11T12:24:25.319Z,19.30
2018-04-11T12:26:53.030Z,19.20
2018-04-11T12:29:20.755Z,19.40
2018-04-11T12:31:48.377Z,19.40
2018-04-11T12:34:15.931Z,19.50
2018-04-11T12:36:43.756Z,19.60
2018-04-11T12:39:12.051Z,20.10
2018-04-11T12:41:39.671Z,20.00
2018-04-11T12:44:07.834Z,20.30
2018-04-11T12:46:35.477Z,20.50
2018-04-11T12:49:03.045Z,20.60
2018-04-11T12:51:31.314Z,19.70
2018-04-11T12:53:58.793Z,19.70
2018-04-11T12:56:27.072Z,19.10
2018-04-11T12:58:54.557Z,19.00
2018-04-11T13:01:23.482Z,19.10
2018-04-11T13:03:51.138Z,19.00
2018-04-11T13:06:18.694Z,18.90
2018-04-11T13:08:47.059Z,17.80
2018-04-11T13:11:14.626Z,17.80
2018-04-11T13:13:42.136Z,17.60
2018-04-11T13:16:10.744Z,17.50
2018-04-11T13:18:39.028Z,17.10
2018-04-11T13:21:06.607Z,17.10
2018-04-11T13:23:34.211Z,17.20
2018-04-11T13:26:04.057Z,17.20
2018-04-11T13:28:32.033Z,17.20
2018-04-11T13:31:00.513Z,17.30
2018-04-11T13:33:29.019Z,17.30
2018-04-11T13:35:56.758Z,17.20
2018-04-11T13:38:33.173Z,17.40
2018-04-11T13:41:01.699Z,17.60
2018-04-11T13:43:35.167Z,17.90
2018-04-11T13:46:06.284Z,17.90
2018-04-11T13:48:46.838Z,17.90
2018-04-11T13:58:22.055Z,17.70
2018-04-11T14:00:49.650Z,17.80
2018-04-11T14:03:17.264Z,17.80
2018-04-11T14:05:45.512Z,17.80
2018-04-11T14:08:17.293Z,17.40
2018-04-11T14:10:47.581Z,17.20
2018-04-11T14:13:16.677Z,16.70
2018-04-11T14:18:47.460Z,16.70
2018-04-11T14:21:15.388Z,16.60
2018-04-11T14:23:47.043Z,16.60
2018-04-11T14:26:14.787Z,16.40
2018-04-11T14:28:49.300Z,16.40
2018-04-11T14:31:16.848Z,16.40
2018-04-11T14:33:46.652Z,16.60
2018-04-11T14:36:15.781Z,17.00
2018-04-11T14:38:44.466Z,17.10
2018-04-11T14:41:17.986Z,17.20
2018-04-11T14:46:47.737Z,16.80
2018-04-11T14:49:20.982Z,16.60
2018-04-11T14:52:01.452Z,16.60
2018-04-11T15:00:46.929Z,16.30
2018-04-11T15:03:14.713Z,16.40
2018-04-11T15:05:57.084Z,16.50
2018-04-11T15:20:39.933Z,16.50
2018-04-11T15:26:19.652Z,16.80
2018-04-11T15:40:59.059Z,17.00
2018-04-11T15:43:27.756Z,17.20
2018-04-11T15:45:55.276Z,17.20
2018-04-11T15:48:23.608Z,17.40
2018-04-11T15:50:51.201Z,17.40
2018-04-11T15:53:20.551Z,17.40
2018-04-11T15:55:49.081Z,17.70
2018-04-11T15:58:16.586Z,17.70
2018-04-11T16:00:53.691Z,17.70
2018-04-11T16:03:21.320Z,17.70
2018-04-11T16:05:59.361Z,17.70
2018-04-11T16:08:26.953Z,17.80
2018-04-11T16:10:56.935Z,17.70
2018-04-11T16:13:24.520Z,17.70
2018-04-11T16:15:57.382Z,17.70
2018-04-11T16:18:26.649Z,17.60
2018-04-11T16:20:55.362Z,17.60
2018-04-11T16:23:23.042Z,17.60
2018-04-11T16:25:54.237Z,17.50
2018-04-11T16:28:25.620Z,17.50
2018-04-11T16:30:58.354Z,17.50
2018-04-11T16:33:26.138Z,17.50
2018-04-11T16:35:59.555Z,17.40
2018-04-11T16:38:27.102Z,17.40
2018-04-11T16:40:55.566Z,17.30
2018-04-11T16:43:23.090Z,17.30
2018-04-11T16:45:52.386Z,17.10
2018-04-11T16:48:25.000Z,17.10
2018-04-11T16:50:53.510Z,17.20
2018-04-11T16:53:24.685Z,17.20
2018-04-11T16:55:52.220Z,17.20
2018-04-11T16:58:19.725Z,17.20
2018-04-11T17:00:47.239Z,17.20
2018-04-11T17:03:14.746Z,17.10
2018-04-11T17:05:42.260Z,17.00
2018-04-11T17:08:14.441Z,17.10
2018-04-11T17:10:41.992Z,17.10
2018-04-11T17:13:13.844Z,17.20
2018-04-11T17:15:41.310Z,17.20
2018-04-11T17:18:08.791Z,17.10
2018-04-11T17:20:48.124Z,17.10
2018-04-11T17:26:49.547Z,16.70
2018-04-11T17:29:28.835Z,16.60
2018-04-11T17:31:56.486Z,16.60
2018-04-11T17:34:23.982Z,16.50
2018-04-11T17:36:51.505Z,16.40
2018-04-11T17:39:19.025Z,16.40
2018-04-11T17:41:46.540Z,16.30
2018-04-11T17:44:14.105Z,16.30
2018-04-11T17:46:42.651Z,16.30
2018-04-11T17:49:10.311Z,16.20
2018-04-11T17:51:39.898Z,16.20
2018-04-11T17:54:20.076Z,16.10
2018-04-11T17:56:49.652Z,16.10
2018-04-11T17:59:17.989Z,16.10
2018-04-11T18:01:46.573Z,16.10
2018-04-11T18:04:27.266Z,16.00
2018-04-11T18:06:54.800Z,16.00
2018-04-11T18:09:22.448Z,16.00
2018-04-11T18:11:50.782Z,16.00
2018-04-11T18:14:18.307Z,16.00
2018-04-11T18:16:52.521Z,15.90
2018-04-11T18:19:20.821Z,15.80
2018-04-11T18:21:56.915Z,15.80
2018-04-11T18:24:25.380Z,15.80
2018-04-11T18:26:59.065Z,15.70
2018-04-11T18:29:26.608Z,15.70
2018-04-11T18:31:55.068Z,15.50
2018-04-11T18:34:32.407Z,15.20
2018-04-11T18:37:00.316Z,15.30
2018-04-11T18:39:27.828Z,15.20
2018-04-11T18:41:56.100Z,15.20
2018-04-11T18:44:23.615Z,15.10
2018-04-11T18:46:51.136Z,15.10
2018-04-11T18:49:18.634Z,15.00
2018-04-11T18:51:47.115Z,14.80
2018-04-11T18:54:24.250Z,14.60
2018-04-11T18:56:58.867Z,14.60
2018-04-11T18:59:26.403Z,14.50
2018-04-11T19:01:59.820Z,14.50
2018-04-11T19:04:27.888Z,14.40
2018-04-11T19:07:01.535Z,14.40
2018-04-11T19:09:29.940Z,14.30
2018-04-11T19:12:04.891Z,14.30
2018-04-11T19:14:32.428Z,14.20
2018-04-11T19:16:59.933Z,14.20
2018-04-11T19:19:27.937Z,14.30
2018-04-11T19:22:09.538Z,14.30
2018-04-11T19:24:43.696Z,14.10
2018-04-11T19:27:12.376Z,14.10
2018-04-11T19:29:40.988Z,14.00
2018-04-11T19:32:14.250Z,13.90
2018-04-11T19:34:56.489Z,13.90
2018-04-11T19:37:37.203Z,13.90
2018-04-11T19:40:15.307Z,13.90
2018-04-11T19:42:43.803Z,13.90
2018-04-11T19:45:15.311Z,13.90
2018-04-11T19:47:43.811Z,13.90
2018-04-11T19:50:13.269Z,13.90
2018-04-11T19:52:42.669Z,13.90
2018-04-11T19:55:10.204Z,13.80
2018-04-11T19:57:38.472Z,13.70
2018-04-11T20:00:11.541Z,13.70
2018-04-11T20:02:39.063Z,13.70
2018-04-11T20:05:06.588Z,13.70
2018-04-11T20:07:34.162Z,13.60
2018-04-11T20:10:05.099Z,13.60
2018-04-11T20:12:33.577Z,13.50
2018-04-11T20:15:06.541Z,13.50
2018-04-11T20:17:35.789Z,13.40
2018-04-11T20:20:20.328Z,13.40
2018-04-11T20:22:48.211Z,13.40
2018-04-11T20:25:21.431Z,13.40
2018-04-11T20:27:49.863Z,13.30
2018-04-11T20:30:17.371Z,13.20
2018-04-11T20:32:45.075Z,13.00
2018-04-11T20:35:26.295Z,13.00
2018-04-11T20:37:55.632Z,13.00
2018-04-11T20:40:29.575Z,13.00
2018-04-11T20:42:57.081Z,13.00
2018-04-11T20:45:28.192Z,12.90
2018-04-11T20:48:05.753Z,13.00
2018-04-11T20:50:33.242Z,13.00
2018-04-11T20:53:00.733Z,12.90
2018-04-11T20:55:29.172Z,12.90
2018-04-11T20:57:56.702Z,12.90
2018-04-11T21:00:32.698Z,13.10
2018-04-11T21:03:00.301Z,13.10
2018-04-11T21:05:27.879Z,13.10
2018-04-11T21:07:55.379Z,13.00
2018-04-11T21:10:27.302Z,12.90
2018-04-11T21:12:56.325Z,12.80
2018-04-11T21:15:23.847Z,12.80
2018-04-11T21:17:51.344Z,12.60
2018-04-11T21:20:18.860Z,12.60
2018-04-11T21:22:47.185Z,12.70
2018-04-11T21:25:15.663Z,12.70
2018-04-11T21:27:43.892Z,12.80
2018-04-11T21:30:11.415Z,12.80
2018-04-11T21:32:43.466Z,12.90
2018-04-11T21:35:25.475Z,12.80
2018-04-11T21:37:53.162Z,12.80
2018-04-11T21:40:21.607Z,12.80
2018-04-11T21:42:49.942Z,12.60
2018-04-11T21:45:18.213Z,12.50
2018-04-11T21:47:47.692Z,12.50
2018-04-11T21:50:16.013Z,12.40
2018-04-11T21:52:52.409Z,12.40
2018-04-11T21:55:20.011Z,12.40
2018-04-11T21:57:47.707Z,12.30
2018-04-11T22:00:15.217Z,12.30
2018-04-11T22:02:42.721Z,12.40
2018-04-11T22:05:11.073Z,12.40
2018-04-11T22:07:40.260Z,12.40
2018-04-11T22:10:08.083Z,12.30
2018-04-11T22:12:36.400Z,12.30
2018-04-11T22:15:08.954Z,12.30
2018-04-11T22:17:36.468Z,12.20
2018-04-11T22:20:03.995Z,12.20
2018-04-11T22:22:31.482Z,12.20
2018-04-11T22:25:03.521Z,12.10
2018-04-11T22:27:41.400Z,12.10
2018-04-11T22:30:10.431Z,12.10
2018-04-11T22:32:37.995Z,12.10
2018-04-11T22:35:05.523Z,12.10
2018-04-11T22:37:33.797Z,12.10
2018-04-11T22:40:02.252Z,12.00
2018-04-11T22:42:29.774Z,12.00
2018-04-11T22:44:58.036Z,12.00
2018-04-11T22:47:25.539Z,11.90
2018-04-11T22:49:53.828Z,11.90
2018-04-11T22:52:22.076Z,11.90
2018-04-11T22:54:50.346Z,11.80
2018-04-11T22:57:17.877Z,11.90
2018-04-11T22:59:45.364Z,11.90
2018-04-11T23:02:12.855Z,11.80
2018-04-11T23:04:40.399Z,11.80
2018-04-11T23:07:07.900Z,11.80
2018-04-11T23:09:36.167Z,11.80
2018-04-11T23:12:17.836Z,11.80
2018-04-11T23:14:46.103Z,11.90
2018-04-11T23:17:13.597Z,11.90
2018-04-11T23:19:42.812Z,12.00
2018-04-11T23:22:13.583Z,12.10
2018-04-11T23:24:43.796Z,12.00
2018-04-11T23:27:11.468Z,12.10
2018-04-11T23:29:39.843Z,12.10
2018-04-11T23:32:08.112Z,12.10
2018-04-11T23:34:39.512Z,12.10
2018-04-11T23:37:09.055Z,12.10
2018-04-11T23:39:36.594Z,12.10
2018-04-11T23:42:04.883Z,12.10
2018-04-11T23:44:33.263Z,12.10
2018-04-11T23:47:00.836Z,12.10
2018-04-11T23:49:29.127Z,11.90
2018-04-11T23:51:57.402Z,11.80
2018-04-11T23:54:25.744Z,11.70
2018-04-11T23:56:53.279Z,11.70
2018-04-11T23:59:21.720Z,11.70
